SoundGuardian — WDI8675 — position and weather

sailwx.info

Track history (hours):
 
Tides and Currents Weather Stations Pressure Air Temp Water Temp Dewpoint Dewpoint Depression Visibility Wind Speed Wind Dir Waves Ship Positions

Oceanographic research ship SoundGuardian (United States)

Owner: King County Environmental Laboratory, Seattle, WA. More information available from US FCC via Universal Licensing System and Coast Guard Vessel Documentation Center.

Last reported at 2019-Jun-18 23:13 UTC. Time now 2019-Jun-19 21:32 UTC.
Position N 47°39' W 122°22'.

Length 13 m; draft 1 m.

Type: Other ship. MMSI: 367741020.

Date/timePositionNaut miles runAvg speedWind from/ knotsBaromVisibWave heightAir tempDewpointWater temp
2019-Jun-18 23:13N 47°39' W 122°22'1 4.6
2019-Jun-18 23:00N 47°40' W 122°23'1 1.2
2019-Jun-18 22:30N 47°40' W 122°24'0 0.7
2019-Jun-18 22:00N 47°40' W 122°24'815.0
2019-Jun-18 21:30N 47°32' W 122°25'0 0.9
2019-Jun-18 20:59N 47°32' W 122°24'0 0.0
2019-Jun-18 20:30N 47°32' W 122°24'0 0.0
2019-Jun-18 20:01N 47°32' W 122°24'1117.8
2019-Jun-18 19:25N 47°21' W 122°23'0 0.2
2019-Jun-18 18:56N 47°22' W 122°23'4 8.4
2019-Jun-18 18:27N 47°26' W 122°24'3 7.2
2019-Jun-18 18:01N 47°28' W 122°26'4 7.7
2019-Jun-18 17:30N 47°32' W 122°24'1 2.2
2019-Jun-18 17:01N 47°32' W 122°26'0 0.1
2019-Jun-18 16:31N 47°32' W 122°26'2 3.0
2019-Jun-18 16:01N 47°31' W 122°24'4 8.8
2019-Jun-18 15:30N 47°36' W 122°26'0 0.7
2019-Jun-18 15:01N 47°36' W 122°26'4 8.1
2019-Jun-18 14:31N 47°40' W 122°24'1 1.6
2019-Jun-18 14:00N 47°40' W 122°23'1 0.1
2019-Jun-17 22:23N 47°39' W 122°22'2 4.2
2019-Jun-17 22:00N 47°40' W 122°24'0 0.0
2019-Jun-17 21:48N 47°40' W 122°24'0 3.3
2019-Jun-17 21:45N 47°40' W 122°24'0 0.3
2019-Jun-17 21:37N 47°40' W 122°24'0 1.2
2019-Jun-17 21:21N 47°40' W 122°24'412.5
2019-Jun-17 21:00N 47°44' W 122°25'0 0.3
2019-Jun-17 20:31N 47°45' W 122°26'0 0.1
2019-Jun-17 20:01N 47°45' W 122°26'  
2019-Jun-12 23:04N 47°39' W 122°22'0 0.0
2019-Jun-12 23:00N 47°39' W 122°22'2 3.4
2019-Jun-12 22:31N 47°40' W 122°24'3 5.0
2019-Jun-12 22:00N 47°37' W 122°25'2 5.0
2019-Jun-12 21:30N 47°35' W 122°23'1 1.9
2019-Jun-12 21:00N 47°35' W 122°21'0 0.3
2019-Jun-12 20:30N 47°35' W 122°21'1 1.7
2019-Jun-12 20:01N 47°36' W 122°21'0 0.6
2019-Jun-12 19:30N 47°36' W 122°21'0 0.2
2019-Jun-12 19:00N 47°36' W 122°21'1 2.0
2019-Jun-12 18:30N 47°37' W 122°22'0 0.0
2019-Jun-12 18:00N 47°37' W 122°22'1 1.6
2019-Jun-12 17:30N 47°37' W 122°22'0 0.9
2019-Jun-12 17:00N 47°38' W 122°23'1 1.2
2019-Jun-12 16:30N 47°38' W 122°24'1 2.0
2019-Jun-12 16:00N 47°37' W 122°23'0 0.0
2019-Jun-12 15:30N 47°37' W 122°23'3 7.1
2019-Jun-12 15:00N 47°40' W 122°24'1 1.1
2019-Jun-12 14:30N 47°40' W 122°24'1 1.7
2019-Jun-12 14:00N 47°40' W 122°22'1 0.0
2019-Jun-10 20:38N 47°39' W 122°22'0 1.9
2019-Jun-10 20:30N 47°39' W 122°21'1 1.2
2019-Jun-10 20:00N 47°39' W 122°21'1 1.7
2019-Jun-10 19:30N 47°39' W 122°20'5 9.4
2019-Jun-10 19:00N 47°35' W 122°15'3 6.0
2019-Jun-10 18:26N 47°32' W 122°15'614.8
2019-Jun-10 18:00N 47°38' W 122°16'1 1.3
2019-Jun-10 17:31N 47°38' W 122°15'4 8.4
2019-Jun-10 17:00N 47°42' W 122°15'3 5.7
2019-Jun-10 16:30N 47°40' W 122°16'3 5.3
2019-Jun-10 16:00N 47°39' W 122°19'1 2.6
2019-Jun-10 15:30N 47°38' W 122°20'2 3.4
2019-Jun-10 15:00N 47°39' W 122°22'1 2.3
2019-Jun-10 14:31N 47°40' W 122°23'1 2.6
2019-Jun-10 14:00N 47°39' W 122°22'  
2019-Jun-05 22:20N 47°39' W 122°22'0 0.0
2019-Jun-04 21:09N 47°39' W 122°22'1 3.4
2019-Jun-04 21:00N 47°40' W 122°22'2 3.5
2019-Jun-04 20:30N 47°40' W 122°25'1122.6
2019-Jun-04 20:01N 47°29' W 122°24'815.2
2019-Jun-04 19:30N 47°22' W 122°23'0 0.0
2019-Jun-04 18:57N 47°22' W 122°23'613.5
2019-Jun-04 18:31N 47°27' W 122°26'5 9.2
2019-Jun-04 18:00N 47°32' W 122°26'0 0.4
2019-Jun-04 17:30N 47°32' W 122°26'0 0.0
2019-Jun-04 17:00N 47°32' W 122°26'1 2.3
2019-Jun-04 16:30N 47°32' W 122°24'0 0.1
2019-Jun-04 16:00N 47°32' W 122°24'2 4.2
2019-Jun-04 15:30N 47°34' W 122°25'2 3.7
2019-Jun-04 15:00N 47°36' W 122°26'5 9.0
2019-Jun-04 14:31N 47°41' W 122°25'2 4.9
2019-Jun-04 14:00N 47°39' W 122°22'0 0.0
2019-Jun-03 21:01N 47°39' W 122°22'0 0.0
2019-Jun-03 21:01N 47°39' W 122°22'2 3.4
2019-Jun-03 20:31N 47°40' W 122°24'4 8.9
2019-Jun-03 20:00N 47°36' W 122°26'4 7.3
2019-Jun-03 19:30N 47°32' W 122°24'0 0.0
2019-Jun-03 19:00N 47°32' W 122°24'3 6.8
2019-Jun-03 18:30N 47°35' W 122°25'3 6.6
2019-Jun-03 18:00N 47°36' W 122°21'510.4
2019-Jun-03 17:30N 47°40' W 122°27'510.7
2019-Jun-03 17:01N 47°45' W 122°25'2 3.5
2019-Jun-03 16:30N 47°47' W 122°25'2 3.5
2019-Jun-03 16:00N 47°45' W 122°26'0 0.3
2019-Jun-03 15:30N 47°45' W 122°26'0 0.3
2019-Jun-03 15:01N 47°45' W 122°26'4 7.9
2019-Jun-03 14:30N 47°41' W 122°25'2 4.1
2019-Jun-03 14:00N 47°40' W 122°22'  
Track history (hours):
 
Tides and Currents Weather Stations Pressure Air Temp Water Temp Dewpoint Dewpoint Depression Visibility Wind Speed Wind Dir Waves Ship Positions

Oceanographic research ship SoundGuardian (United States)

Owner: King County Environmental Laboratory, Seattle, WA. More information available from US FCC via Universal Licensing System and Coast Guard Vessel Documentation Center.

Last reported at 2019-Jun-18 23:13 UTC. Time now 2019-Jun-19 21:32 UTC.
Position N 47°39' W 122°22'.

Length 13 m; draft 1 m.

Type: Other ship. MMSI: 367741020.

Date/timePositionNaut miles runAvg speedWind from/ knotsBaromVisibWave heightAir tempDewpointWater temp
2019-Jun-18 23:13N 47°39' W 122°22'1 4.6
2019-Jun-18 23:00N 47°40' W 122°23'1 1.2
2019-Jun-18 22:30N 47°40' W 122°24'0 0.7
2019-Jun-18 22:00N 47°40' W 122°24'815.0
2019-Jun-18 21:30N 47°32' W 122°25'0 0.9
2019-Jun-18 20:59N 47°32' W 122°24'0 0.0
2019-Jun-18 20:30N 47°32' W 122°24'0 0.0
2019-Jun-18 20:01N 47°32' W 122°24'1117.8
2019-Jun-18 19:25N 47°21' W 122°23'0 0.2
2019-Jun-18 18:56N 47°22' W 122°23'4 8.4
2019-Jun-18 18:27N 47°26' W 122°24'3 7.2
2019-Jun-18 18:01N 47°28' W 122°26'4 7.7
2019-Jun-18 17:30N 47°32' W 122°24'1 2.2
2019-Jun-18 17:01N 47°32' W 122°26'0 0.1
2019-Jun-18 16:31N 47°32' W 122°26'2 3.0
2019-Jun-18 16:01N 47°31' W 122°24'4 8.8
2019-Jun-18 15:30N 47°36' W 122°26'0 0.7
2019-Jun-18 15:01N 47°36' W 122°26'4 8.1
2019-Jun-18 14:31N 47°40' W 122°24'1 1.6
2019-Jun-18 14:00N 47°40' W 122°23'1 0.1
2019-Jun-17 22:23N 47°39' W 122°22'2 4.2
2019-Jun-17 22:00N 47°40' W 122°24'0 0.0
2019-Jun-17 21:48N 47°40' W 122°24'0 3.3
2019-Jun-17 21:45N 47°40' W 122°24'0 0.3
2019-Jun-17 21:37N 47°40' W 122°24'0 1.2
2019-Jun-17 21:21N 47°40' W 122°24'412.5
2019-Jun-17 21:00N 47°44' W 122°25'0 0.3
2019-Jun-17 20:31N 47°45' W 122°26'0 0.1
2019-Jun-17 20:01N 47°45' W 122°26'  
2019-Jun-12 23:04N 47°39' W 122°22'0 0.0
2019-Jun-12 23:00N 47°39' W 122°22'2 3.4
2019-Jun-12 22:31N 47°40' W 122°24'3 5.0
2019-Jun-12 22:00N 47°37' W 122°25'2 5.0
2019-Jun-12 21:30N 47°35' W 122°23'1 1.9
2019-Jun-12 21:00N 47°35' W 122°21'0 0.3
2019-Jun-12 20:30N 47°35' W 122°21'1 1.7
2019-Jun-12 20:01N 47°36' W 122°21'0 0.6
2019-Jun-12 19:30N 47°36' W 122°21'0 0.2
2019-Jun-12 19:00N 47°36' W 122°21'1 2.0
2019-Jun-12 18:30N 47°37' W 122°22'0 0.0
2019-Jun-12 18:00N 47°37' W 122°22'1 1.6
2019-Jun-12 17:30N 47°37' W 122°22'0 0.9
2019-Jun-12 17:00N 47°38' W 122°23'1 1.2
2019-Jun-12 16:30N 47°38' W 122°24'1 2.0
2019-Jun-12 16:00N 47°37' W 122°23'0 0.0
2019-Jun-12 15:30N 47°37' W 122°23'3 7.1
2019-Jun-12 15:00N 47°40' W 122°24'1 1.1
2019-Jun-12 14:30N 47°40' W 122°24'1 1.7
2019-Jun-12 14:00N 47°40' W 122°22'1 0.0
2019-Jun-10 20:38N 47°39' W 122°22'0 1.9
2019-Jun-10 20:30N 47°39' W 122°21'1 1.2
2019-Jun-10 20:00N 47°39' W 122°21'1 1.7
2019-Jun-10 19:30N 47°39' W 122°20'5 9.4
2019-Jun-10 19:00N 47°35' W 122°15'3 6.0
2019-Jun-10 18:26N 47°32' W 122°15'614.8
2019-Jun-10 18:00N 47°38' W 122°16'1 1.3
2019-Jun-10 17:31N 47°38' W 122°15'4 8.4
2019-Jun-10 17:00N 47°42' W 122°15'3 5.7
2019-Jun-10 16:30N 47°40' W 122°16'3 5.3
2019-Jun-10 16:00N 47°39' W 122°19'1 2.6
2019-Jun-10 15:30N 47°38' W 122°20'2 3.4
2019-Jun-10 15:00N 47°39' W 122°22'1 2.3
2019-Jun-10 14:31N 47°40' W 122°23'1 2.6
2019-Jun-10 14:00N 47°39' W 122°22'  
2019-Jun-05 22:20N 47°39' W 122°22'0 0.0
2019-Jun-04 21:09N 47°39' W 122°22'1 3.4
2019-Jun-04 21:00N 47°40' W 122°22'2 3.5
2019-Jun-04 20:30N 47°40' W 122°25'1122.6
2019-Jun-04 20:01N 47°29' W 122°24'815.2
2019-Jun-04 19:30N 47°22' W 122°23'0 0.0
2019-Jun-04 18:57N 47°22' W 122°23'613.5
2019-Jun-04 18:31N 47°27' W 122°26'5 9.2
2019-Jun-04 18:00N 47°32' W 122°26'0 0.4
2019-Jun-04 17:30N 47°32' W 122°26'0 0.0
2019-Jun-04 17:00N 47°32' W 122°26'1 2.3
2019-Jun-04 16:30N 47°32' W 122°24'0 0.1
2019-Jun-04 16:00N 47°32' W 122°24'2 4.2
2019-Jun-04 15:30N 47°34' W 122°25'2 3.7
2019-Jun-04 15:00N 47°36' W 122°26'5 9.0
2019-Jun-04 14:31N 47°41' W 122°25'2 4.9
2019-Jun-04 14:00N 47°39' W 122°22'0 0.0
2019-Jun-03 21:01N 47°39' W 122°22'0 0.0
2019-Jun-03 21:01N 47°39' W 122°22'2 3.4
2019-Jun-03 20:31N 47°40' W 122°24'4 8.9
2019-Jun-03 20:00N 47°36' W 122°26'4 7.3
2019-Jun-03 19:30N 47°32' W 122°24'0 0.0
2019-Jun-03 19:00N 47°32' W 122°24'3 6.8
2019-Jun-03 18:30N 47°35' W 122°25'3 6.6
2019-Jun-03 18:00N 47°36' W 122°21'510.4
2019-Jun-03 17:30N 47°40' W 122°27'510.7
2019-Jun-03 17:01N 47°45' W 122°25'2 3.5
2019-Jun-03 16:30N 47°47' W 122°25'2 3.5
2019-Jun-03 16:00N 47°45' W 122°26'0 0.3
2019-Jun-03 15:30N 47°45' W 122°26'0 0.3
2019-Jun-03 15:01N 47°45' W 122°26'4 7.9
2019-Jun-03 14:30N 47°41' W 122°25'2 4.1
2019-Jun-03 14:00N 47°40' W 122°22'  

Dump ship's entire track history